首页
METAR-TAF:

METAR-TAF

机场 :

布拉格, 捷克共和国

布拉格瓦茨拉夫·哈維爾國際機場

纬度: 50-06N, 经度: 014-15E, 海拔: 365米

当前天气观测

该预报发布于15分钟前的01:30 UTC
风速10节,风向西
温度 2°C
湿度 69%
气压 1001 hPa
能见度10公里或以上
多云层高于4600英尺

METAR: LKPR 190130Z 26010KT 9999 BKN046 02/M03 Q1001 NOSIG

时间: 02:45 (01:45 UTC)

预报

该预报发布于2小时和45分钟前的23:00 UTC
预报有效从19日的 00点(UTC)到 20日的 06点(UTC)
风速13节,风向西转西南
能见度10公里或以上
散云层高于4000英尺
短暂存在
从 19日的 00点(UTC)到 20日的 06点(UTC)
能見度: 8000
多云层高于1300英尺
小阵雨, 雪
几率 40% :
短暂存在
从 19日的 10点(UTC)到 19日的 18点(UTC)
风速14节,风向西,有时为24节阵风
能見度: 3000
散云层高于700英尺, 塔状积云.
阵雪, 雨

TAF: LKPR 182300Z 1900/2006 25013KT 9999 SCT040 TEMPO 1900/2006 8000 -SHRASN BKN013 PROB40 TEMPO 1910/1918 27014G24KT 3000 SHSNRA SCT007TCU

超过4000个机场的气象观测和天气预报(METAR&TAF报告)。

可查询的气象台以黄色和红色小点在地图上表示。

将鼠标移到小点上方,可查看气象台名称。

然后点击查看天气观测和预报。

如需切换地图:点击带黑十字的绿色按钮放大地图;点击带横线的绿色按钮缩小地图;或者点击绿色箭头查看邻近地区的地图。


METAR-TAF: